Time;durP1;ratioP1;P1;durP2;ratioP2;P2;SDS_P1;SDS_P2;PMS_P1;PMS_P2;Temp;Humidity;BMP_temperature;BMP_pressure;BME280_temperature;BME280_humidity;BME280_pressure;Samples;Min_cycle;Max_cycle;Signal;HPM_P1;HPM_P2
2024/01/01 00:01:42;;;;;;;1999.90;999.90;;;7.80;99.90;;;;;;5019788;28;20432;-70
2024/01/01 00:04:08;;;;;;;1999.90;999.90;;;7.80;99.90;;;;;;5030518;28;20029;-69
2024/01/01 00:06:34;;;;;;;1999.90;999.90;;;7.70;99.90;;;;;;5029102;28;20083;-70
2024/01/01 00:09:00;;;;;;;1999.90;999.90;;;7.70;99.90;;;;;;5024693;28;20034;-70
2024/01/01 00:11:26;;;;;;;1999.90;999.90;;;7.70;99.90;;;;;;5021116;28;20477;-70
2024/01/01 00:13:52;;;;;;;1999.90;999.90;;;7.60;99.90;;;;;;5020402;28;20266;-69
2024/01/01 00:16:18;;;;;;;1999.90;999.90;;;7.60;99.90;;;;;;5023019;28;20095;-70
2024/01/01 00:18:43;;;;;;;1999.90;999.90;;;7.50;99.90;;;;;;5020918;28;20269;-70
2024/01/01 00:21:09;;;;;;;1999.90;999.90;;;7.50;99.90;;;;;;5023979;28;20417;-69
2024/01/01 00:23:35;;;;;;;1999.90;999.90;;;7.50;99.90;;;;;;5024397;28;20356;-69
2024/01/01 00:26:01;;;;;;;1999.90;999.90;;;7.50;99.90;;;;;;5024021;28;20031;-70
2024/01/01 00:28:27;;;;;;;1999.90;999.90;;;7.50;99.90;;;;;;5024823;28;20436;-70
2024/01/01 00:30:53;;;;;;;1999.90;999.90;;;7.50;99.90;;;;;;5020390;28;20460;-69
2024/01/01 00:33:18;;;;;;;1999.90;999.90;;;7.50;99.90;;;;;;5022913;28;20062;-69
2024/01/01 00:35:44;;;;;;;1999.90;999.90;;;7.50;99.90;;;;;;5024658;28;20408;-68
2024/01/01 00:38:10;;;;;;;1999.90;999.90;;;7.50;99.90;;;;;;5023663;28;20021;-70
2024/01/01 00:40:37;;;;;;;1999.90;999.90;;;7.50;99.90;;;;;;5022734;28;20030;-69
2024/01/01 00:43:03;;;;;;;1999.90;999.90;;;7.50;99.90;;;;;;5020631;28;20089;-70
2024/01/01 00:45:29;;;;;;;;;;;7.50;99.90;;;;;;5022953;28;20042;-69
2024/01/01 00:47:56;;;;;;;1999.90;999.90;;;7.50;99.90;;;;;;5023578;28;19921;-70
2024/01/01 00:50:22;;;;;;;1999.90;999.90;;;7.50;99.90;;;;;;5025408;28;20037;-70
2024/01/01 00:52:47;;;;;;;1999.90;999.90;;;7.40;99.90;;;;;;5022413;28;20434;-69
2024/01/01 00:55:13;;;;;;;1999.90;999.90;;;7.40;99.90;;;;;;5022593;28;20033;-70
2024/01/01 00:57:39;;;;;;;1999.90;999.90;;;7.50;99.90;;;;;;5023210;28;20028;-69
2024/01/01 01:00:05;;;;;;;1999.90;999.90;;;7.40;99.90;;;;;;5023489;28;20029;-70
2024/01/01 01:02:31;;;;;;;1999.90;999.90;;;7.40;99.90;;;;;;5023789;28;20053;-69
2024/01/01 01:04:57;;;;;;;1999.90;999.90;;;7.40;99.90;;;;;;5023658;28;20417;-70
2024/01/01 01:07:22;;;;;;;1999.90;999.90;;;7.40;99.90;;;;;;5023620;28;20018;-70
2024/01/01 01:09:48;;;;;;;1999.90;999.90;;;7.40;99.90;;;;;;5025304;28;20053;-69
2024/01/01 01:12:16;;;;;;;1999.90;999.90;;;7.40;99.90;;;;;;5023473;28;20026;-69
2024/01/01 01:14:42;;;;;;;1999.90;999.90;;;7.40;99.90;;;;;;5022329;28;20026;-70
2024/01/01 01:17:08;;;;;;;1999.90;999.90;;;7.40;99.90;;;;;;5021374;28;20364;-69
2024/01/01 01:19:34;;;;;;;1999.90;999.90;;;7.40;99.90;;;;;;5026852;28;20033;-70
2024/01/01 01:22:00;;;;;;;1999.90;999.90;;;7.40;99.90;;;;;;5024874;28;20381;-70
2024/01/01 01:24:26;;;;;;;1999.90;999.90;;;7.40;99.90;;;;;;5025023;28;20026;-70
2024/01/01 01:26:52;;;;;;;1999.90;999.90;;;7.40;99.90;;;;;;5027934;28;20022;-69
2024/01/01 01:29:17;;;;;;;1999.90;999.90;;;7.40;99.90;;;;;;5028265;28;20482;-70
2024/01/01 01:31:46;;;;;;;1999.90;999.90;;;7.40;99.90;;;;;;5025367;28;20025;-69
2024/01/01 01:34:12;;;;;;;1999.90;999.90;;;7.40;99.90;;;;;;5025799;28;20025;-69
2024/01/01 01:36:38;;;;;;;1999.90;999.90;;;7.40;99.90;;;;;;5025255;28;20413;-69
2024/01/01 01:39:04;;;;;;;1999.90;999.90;;;7.30;99.90;;;;;;5025415;28;20421;-69
2024/01/01 01:41:29;;;;;;;1999.90;999.90;;;7.30;99.90;;;;;;5024408;28;20042;-69
2024/01/01 01:43:55;;;;;;;1999.90;999.90;;;7.40;99.90;;;;;;5026966;28;20057;-68
2024/01/01 01:46:21;;;;;;;1999.90;999.90;;;7.40;99.90;;;;;;5027089;28;20032;-70
2024/01/01 01:48:47;;;;;;;1999.90;999.90;;;7.40;99.90;;;;;;5025423;28;20059;-69
2024/01/01 01:51:13;;;;;;;1999.90;999.90;;;7.40;99.90;;;;;;5025760;28;20033;-70
2024/01/01 01:53:40;;;;;;;1999.90;999.90;;;7.40;99.90;;;;;;5025253;28;20021;-69
2024/01/01 01:56:07;;;;;;;1999.90;999.90;;;7.40;99.90;;;;;;5024728;28;20026;-70
2024/01/01 01:58:34;;;;;;;1999.90;999.90;;;7.40;99.90;;;;;;5024798;28;20026;-69
2024/01/01 02:01:00;;;;;;;1999.90;999.90;;;7.40;99.90;;;;;;5028908;28;20055;-70
2024/01/01 02:03:26;;;;;;;1999.90;999.90;;;7.40;99.90;;;;;;5027687;28;20026;-69
2024/01/01 02:05:54;;;;;;;1999.90;999.90;;;7.40;99.90;;;;;;5030433;28;20026;-69
2024/01/01 02:08:21;;;;;;;1999.90;999.90;;;7.40;99.90;;;;;;5032701;28;20538;-69
2024/01/01 02:10:47;;;;;;;1999.90;999.90;;;7.40;99.90;;;;;;5035177;28;20033;-70
2024/01/01 02:13:29;;;;;;;1999.90;999.90;;;7.40;99.90;;;;;;5029344;28;20014;-70
2024/01/01 02:15:56;;;;;;;1999.90;999.90;;;7.40;99.90;;;;;;5026784;28;20026;-69
2024/01/01 02:18:22;;;;;;;1999.90;999.90;;;7.30;99.90;;;;;;5031207;28;20412;-70
2024/01/01 02:20:47;;;;;;;1999.90;999.90;;;7.30;99.90;;;;;;5030979;28;20025;-70
2024/01/01 02:23:18;;;;;;;1999.90;999.90;;;7.30;99.90;;;;;;5017224;28;20026;-69
2024/01/01 02:25:44;;;;;;;1999.90;999.90;;;7.30;99.90;;;;;;5025975;28;20017;-69
2024/01/01 02:28:10;;;;;;;1999.90;999.90;;;7.30;99.90;;;;;;5029498;28;20515;-68
2024/01/01 02:30:36;;;;;;;1999.90;999.90;;;7.30;99.90;;;;;;5027872;28;20083;-69
2024/01/01 02:33:14;;;;;;;1999.90;999.90;;;7.20;99.90;;;;;;5028864;28;20088;-70
2024/01/01 02:35:40;;;;;;;1999.90;999.90;;;7.10;99.90;;;;;;5028429;28;20029;-69
2024/01/01 02:38:07;;;;;;;1999.90;999.90;;;7.10;99.90;;;;;;5030829;28;20541;-70
2024/01/01 02:40:36;;;;;;;1999.90;999.90;;;7.10;99.90;;;;;;5034435;28;20029;-70
2024/01/01 02:43:03;;;;;;;1999.90;999.90;;;7.20;99.90;;;;;;5032937;28;20045;-69
2024/01/01 02:45:30;;;;;;;1999.90;999.90;;;7.20;99.90;;;;;;5033359;28;20022;-69
2024/01/01 02:47:56;;;;;;;1999.90;999.90;;;7.10;99.90;;;;;;5030125;28;20029;-70
2024/01/01 02:50:22;;;;;;;1999.90;999.90;;;7.20;99.90;;;;;;5024118;28;20027;-70
2024/01/01 02:52:48;;;;;;;1999.90;999.90;;;7.10;99.90;;;;;;5022102;28;20080;-69
2024/01/01 02:55:15;;;;;;;1999.90;999.90;;;7.10;99.90;;;;;;5028480;28;20080;-69
2024/01/01 02:57:41;;;;;;;1999.90;999.90;;;7.10;99.90;;;;;;5024739;28;20036;-69
2024/01/01 03:00:09;;;;;;;1999.90;999.90;;;7.10;99.90;;;;;;5030594;28;20037;-70
2024/01/01 03:02:38;;;;;;;1999.90;999.90;;;7.10;99.90;;;;;;5034190;28;20033;-69
2024/01/01 03:05:05;;;;;;;1999.90;999.90;;;7.10;99.90;;;;;;5027688;28;20014;-70
2024/01/01 03:07:32;;;;;;;1999.90;999.90;;;7.20;99.90;;;;;;5033515;28;20101;-69
2024/01/01 03:09:57;;;;;;;1999.90;999.90;;;7.10;99.90;;;;;;5033001;28;20028;-69
2024/01/01 03:12:23;;;;;;;1999.90;999.90;;;7.10;99.90;;;;;;5033184;28;20033;-68
2024/01/01 03:14:49;;;;;;;1999.90;999.90;;;7.20;99.90;;;;;;5033227;28;20033;-69
2024/01/01 03:17:15;;;;;;;1999.90;999.90;;;7.20;99.90;;;;;;5033093;28;20748;-69
2024/01/01 03:19:41;;;;;;;1999.90;999.90;;;7.20;99.90;;;;;;5033165;28;20041;-69
2024/01/01 03:22:07;;;;;;;1999.90;999.90;;;7.20;99.90;;;;;;5032996;28;20029;-68
2024/01/01 03:24:32;;;;;;;1999.90;999.90;;;7.20;99.90;;;;;;5033835;28;20514;-70
2024/01/01 03:26:58;;;;;;;1999.90;999.90;;;7.20;99.90;;;;;;5032488;28;20036;-70
2024/01/01 03:29:24;;;;;;;1999.90;999.90;;;7.30;99.90;;;;;;5031238;28;20021;-70
2024/01/01 03:31:50;;;;;;;1999.90;999.90;;;7.30;99.90;;;;;;5033647;28;20033;-70
2024/01/01 03:34:16;;;;;;;1999.90;999.90;;;7.30;99.90;;;;;;5032372;28;20017;-69
2024/01/01 03:36:42;;;;;;;1999.90;999.90;;;7.30;99.90;;;;;;5033331;28;20044;-69
2024/01/01 03:39:08;;;;;;;1999.90;999.90;;;7.30;99.90;;;;;;5032276;28;20025;-70
2024/01/01 03:41:34;;;;;;;1999.90;999.90;;;7.30;99.90;;;;;;5032357;28;20287;-69
2024/01/01 03:43:59;;;;;;;1999.90;999.90;;;7.30;99.90;;;;;;5033027;28;20040;-70
2024/01/01 03:46:25;;;;;;;1999.90;999.90;;;7.30;99.90;;;;;;5031310;28;20328;-69
2024/01/01 03:48:51;;;;;;;1999.90;999.90;;;7.30;99.90;;;;;;5032925;28;20064;-70
2024/01/01 03:51:16;;;;;;;1999.90;999.90;;;7.40;99.90;;;;;;5032218;28;20029;-70
2024/01/01 03:53:42;;;;;;;1999.90;999.90;;;7.40;99.90;;;;;;5027638;28;20041;-69
2024/01/01 03:56:08;;;;;;;1999.90;999.90;;;7.40;99.90;;;;;;5031257;28;20164;-69
2024/01/01 03:58:34;;;;;;;1999.90;999.90;;;7.40;99.90;;;;;;5023549;28;20450;-69
2024/01/01 04:01:00;;;;;;;1999.90;999.90;;;7.40;99.90;;;;;;5028593;28;20041;-69
2024/01/01 04:03:25;;;;;;;1999.90;999.90;;;7.40;99.90;;;;;;5029926;28;20067;-69
2024/01/01 04:05:51;;;;;;;1999.90;999.90;;;7.40;99.90;;;;;;5029512;28;20029;-69
2024/01/01 04:08:17;;;;;;;1999.90;999.90;;;7.40;99.90;;;;;;5027358;28;20034;-70
2024/01/01 04:10:42;;;;;;;1999.90;999.90;;;7.40;99.90;;;;;;5032441;28;20025;-70
2024/01/01 04:13:08;;;;;;;1999.90;999.90;;;7.40;99.90;;;;;;5033676;28;20124;-70
2024/01/01 04:15:34;;;;;;;1999.90;999.90;;;7.50;99.90;;;;;;5028888;28;20038;-70
2024/01/01 04:17:59;;;;;;;1999.90;999.90;;;7.50;99.90;;;;;;5017270;28;20040;-69
2024/01/01 04:20:25;;;;;;;1999.90;999.90;;;7.50;99.90;;;;;;5027017;28;20347;-69
2024/01/01 04:22:51;;;;;;;1999.90;999.90;;;7.50;99.90;;;;;;5031939;28;20041;-69
2024/01/01 04:25:20;;;;;;;1999.90;999.90;;;7.50;99.90;;;;;;5026060;28;20052;-69
2024/01/01 04:27:46;;;;;;;1999.90;999.90;;;7.50;99.90;;;;;;5022869;28;20101;-69
2024/01/01 04:30:13;;;;;;;1999.90;999.90;;;7.50;99.90;;;;;;5026172;28;20108;-69
2024/01/01 04:32:39;;;;;;;1999.90;999.90;;;7.50;99.90;;;;;;5031277;28;20021;-69
2024/01/01 04:35:05;;;;;;;1999.90;999.90;;;7.50;99.90;;;;;;5032563;28;20036;-70
2024/01/01 04:37:31;;;;;;;1999.90;999.90;;;7.50;99.90;;;;;;5031981;28;20392;-70
2024/01/01 04:39:57;;;;;;;1999.90;999.90;;;7.50;99.90;;;;;;5032175;28;20387;-69
2024/01/01 04:42:23;;;;;;;1999.90;999.90;;;7.50;99.90;;;;;;5031000;28;20104;-69
2024/01/01 04:44:49;;;;;;;1999.90;999.90;;;7.60;99.90;;;;;;5032266;28;20298;-69
2024/01/01 04:47:15;;;;;;;;;;;7.60;99.90;;;;;;5032433;28;20112;-70
2024/01/01 04:49:41;;;;;;;1999.90;999.90;;;7.60;99.90;;;;;;5031719;28;20011;-69
2024/01/01 04:52:07;;;;;;;1999.90;999.90;;;7.60;99.90;;;;;;5034749;28;20037;-69
2024/01/01 04:54:32;;;;;;;1999.90;999.90;;;7.60;99.90;;;;;;5033644;28;20103;-70
2024/01/01 04:56:58;;;;;;;1999.90;999.90;;;7.60;99.90;;;;;;5030271;28;20025;-69
2024/01/01 04:59:24;;;;;;;1999.90;999.90;;;7.60;99.90;;;;;;5035540;28;20429;-69
2024/01/01 05:01:49;;;;;;;1999.90;999.90;;;7.60;99.90;;;;;;5036046;28;20371;-69
2024/01/01 05:04:15;;;;;;;1999.90;999.90;;;7.60;99.90;;;;;;5034638;28;20029;-69
2024/01/01 05:06:41;;;;;;;1999.90;999.90;;;7.50;99.90;;;;;;5035205;28;20017;-69
2024/01/01 05:09:07;;;;;;;1999.90;999.90;;;7.50;99.90;;;;;;5035910;28;20092;-70
2024/01/01 05:11:33;;;;;;;1999.90;999.90;;;7.50;99.90;;;;;;5033702;28;20117;-69
2024/01/01 05:13:59;;;;;;;1999.90;999.90;;;7.50;99.90;;;;;;5036161;28;20041;-70
2024/01/01 05:16:25;;;;;;;1999.90;999.90;;;7.50;99.90;;;;;;5033499;28;20025;-70
2024/01/01 05:18:51;;;;;;;1999.90;999.90;;;7.50;99.90;;;;;;5027145;28;20025;-69
2024/01/01 05:21:17;;;;;;;1999.90;999.90;;;7.50;99.90;;;;;;5028438;28;20077;-69
2024/01/01 05:23:42;;;;;;;1999.90;999.90;;;7.50;99.90;;;;;;5043041;28;20021;-69
2024/01/01 05:26:08;;;;;;;1999.90;999.90;;;7.50;99.90;;;;;;5038269;28;20033;-70
2024/01/01 05:28:34;;;;;;;1999.90;999.90;;;7.50;99.90;;;;;;5036726;28;20033;-69
2024/01/01 05:31:00;;;;;;;1999.90;999.90;;;7.50;99.90;;;;;;5036839;28;20417;-69
2024/01/01 05:33:25;;;;;;;1999.90;999.90;;;7.50;99.90;;;;;;5035203;28;20052;-70
2024/01/01 05:35:51;;;;;;;1999.90;999.90;;;7.50;99.90;;;;;;5033476;28;20328;-69
2024/01/01 05:38:19;;;;;;;1999.90;999.90;;;7.50;99.90;;;;;;5035343;28;20037;-69
2024/01/01 05:40:45;;;;;;;1999.90;999.90;;;7.50;99.90;;;;;;5034579;28;20305;-71
2024/01/01 05:43:11;;;;;;;;;;;7.50;99.90;;;;;;5032966;28;20436;-69
2024/01/01 05:45:37;;;;;;;1999.90;999.90;;;7.50;99.90;;;;;;5035038;28;20019;-70
2024/01/01 05:48:03;;;;;;;1999.90;999.90;;;7.50;99.90;;;;;;5034628;28;20413;-69
2024/01/01 05:50:30;;;;;;;1999.90;999.90;;;7.50;99.90;;;;;;5035444;28;20033;-71
2024/01/01 05:52:56;;;;;;;1999.90;999.90;;;7.50;99.90;;;;;;5033949;28;20612;-70
2024/01/01 05:55:21;;;;;;;1999.90;999.90;;;7.50;99.90;;;;;;5034937;28;20068;-71
2024/01/01 05:57:47;;;;;;;1999.90;999.90;;;7.50;99.90;;;;;;5033868;28;20280;-69
2024/01/01 06:00:13;;;;;;;1999.90;999.90;;;7.50;99.90;;;;;;5027952;28;20068;-69
2024/01/01 06:02:39;;;;;;;1999.90;999.90;;;7.50;99.90;;;;;;5033201;28;20033;-70
2024/01/01 06:05:05;;;;;;;1999.90;999.90;;;7.50;99.90;;;;;;5034234;28;20080;-69
2024/01/01 06:07:31;;;;;;;1999.90;999.90;;;7.50;99.90;;;;;;5034642;28;20030;-70
2024/01/01 06:09:57;;;;;;;1999.90;999.90;;;7.50;99.90;;;;;;5026564;28;20036;-69
2024/01/01 06:12:24;;;;;;;1999.90;999.90;;;7.50;99.90;;;;;;5034622;28;20475;-69
2024/01/01 06:14:50;;;;;;;1999.90;999.90;;;7.50;99.90;;;;;;5033995;28;20033;-69
2024/01/01 06:17:16;;;;;;;1999.90;999.90;;;7.50;99.90;;;;;;5034322;28;20064;-69
2024/01/01 06:19:42;;;;;;;1999.90;999.90;;;7.50;99.90;;;;;;5034341;28;20068;-70
2024/01/01 06:22:08;;;;;;;1999.90;999.90;;;7.50;99.90;;;;;;5034076;28;20630;-69
2024/01/01 06:24:33;;;;;;;1999.90;999.90;;;7.50;99.90;;;;;;5034596;28;20294;-69
2024/01/01 06:26:59;;;;;;;1999.90;999.90;;;7.50;99.90;;;;;;5033516;28;20018;-69
2024/01/01 06:29:27;;;;;;;1999.90;999.90;;;7.50;99.90;;;;;;5033784;28;20022;-69
2024/01/01 06:31:53;;;;;;;1999.90;999.90;;;7.50;99.90;;;;;;5034396;28;20472;-69
2024/01/01 06:34:19;;;;;;;1999.90;999.90;;;7.50;99.90;;;;;;5033555;28;20025;-69
2024/01/01 06:36:45;;;;;;;1999.90;999.90;;;7.50;99.90;;;;;;5034410;28;20029;-69
2024/01/01 06:39:11;;;;;;;1999.90;999.90;;;7.50;99.90;;;;;;5034505;28;20041;-69
2024/01/01 06:41:37;;;;;;;1999.90;999.90;;;7.50;99.90;;;;;;5033427;28;20322;-69
2024/01/01 06:44:03;;;;;;;1999.90;999.90;;;7.50;99.90;;;;;;5034028;28;20021;-69
2024/01/01 06:46:29;;;;;;;1999.90;999.90;;;7.50;99.90;;;;;;5027053;28;20025;-69
2024/01/01 06:48:54;;;;;;;1999.90;999.90;;;7.50;99.90;;;;;;5033732;28;20021;-70
2024/01/01 06:51:20;;;;;;;1999.90;999.90;;;7.50;99.90;;;;;;5033398;28;20040;-70
2024/01/01 06:53:46;;;;;;;1999.90;999.90;;;7.50;99.90;;;;;;5034115;28;20026;-70
2024/01/01 06:56:11;;;;;;;1999.90;999.90;;;7.60;99.90;;;;;;5033547;28;20428;-69
2024/01/01 06:58:37;;;;;;;1999.90;999.90;;;7.50;99.90;;;;;;5033849;28;20323;-70
2024/01/01 07:01:03;;;;;;;1999.90;999.90;;;7.50;99.90;;;;;;5033656;28;20445;-70
2024/01/01 07:03:29;;;;;;;1999.90;999.90;;;7.50;99.90;;;;;;5033159;28;20109;-69
2024/01/01 07:05:55;;;;;;;1999.90;999.90;;;7.50;99.90;;;;;;5024689;28;20040;-70
2024/01/01 07:08:23;;;;;;;1999.90;999.90;;;7.50;99.90;;;;;;5031167;28;20025;-69
2024/01/01 07:10:49;;;;;;;1999.90;999.90;;;7.50;99.90;;;;;;5031871;28;20352;-70
2024/01/01 07:13:14;;;;;;;1999.90;999.90;;;7.50;99.90;;;;;;5034353;28;20030;-69
2024/01/01 07:15:40;;;;;;;1999.90;999.90;;;7.50;99.90;;;;;;5035719;28;20083;-70
2024/01/01 07:18:07;;;;;;;1999.90;999.90;;;7.50;99.90;;;;;;5031321;28;20124;-69
2024/01/01 07:20:32;;;;;;;1999.90;999.90;;;7.50;99.90;;;;;;5033878;28;20251;-69
2024/01/01 07:22:58;;;;;;;1999.90;999.90;;;7.50;99.90;;;;;;5031740;28;20031;-69
2024/01/01 07:25:24;;;;;;;1999.90;999.90;;;7.50;99.90;;;;;;5033069;28;20025;-70
2024/01/01 07:27:50;;;;;;;1999.90;999.90;;;7.50;99.90;;;;;;5035023;28;20128;-70
2024/01/01 07:30:16;;;;;;;1999.90;999.90;;;7.50;99.90;;;;;;5029668;28;20195;-70
2024/01/01 07:32:42;;;;;;;1999.90;999.90;;;7.50;99.90;;;;;;5025510;28;20444;-70
2024/01/01 07:35:08;;;;;;;1999.90;999.90;;;7.50;99.90;;;;;;5031735;28;20033;-71
2024/01/01 07:37:35;;;;;;;1999.90;999.90;;;7.50;99.90;;;;;;5037571;28;20029;-70
2024/01/01 07:40:01;;;;;;;1999.90;999.90;;;7.50;99.90;;;;;;5016289;28;20048;-71
2024/01/01 07:42:27;;;;;;;1999.90;999.90;;;7.60;99.90;;;;;;5025839;28;20440;-70
2024/01/01 07:44:53;;;;;;;1999.90;999.90;;;7.60;99.90;;;;;;5024040;28;20056;-69
2024/01/01 07:47:19;;;;;;;1999.90;999.90;;;7.60;99.90;;;;;;5028890;28;20026;-69
2024/01/01 07:49:45;;;;;;;1999.90;999.90;;;7.60;99.90;;;;;;5025868;28;20032;-70
2024/01/01 07:52:14;;;;;;;1999.90;999.90;;;7.60;99.90;;;;;;5023451;28;20048;-70
2024/01/01 07:54:40;;;;;;;1999.90;999.90;;;7.60;99.90;;;;;;5027860;28;20124;-70
2024/01/01 07:57:06;;;;;;;1999.90;999.90;;;7.60;99.90;;;;;;5026646;28;20030;-70
2024/01/01 07:59:32;;;;;;;1999.90;999.90;;;7.60;99.90;;;;;;5022955;28;20030;-69
2024/01/01 08:01:58;;;;;;;1999.90;999.90;;;7.60;99.90;;;;;;5034907;28;20014;-70
2024/01/01 08:04:24;;;;;;;1999.90;999.90;;;7.60;99.90;;;;;;5034261;28;20038;-69
2024/01/01 08:06:49;;;;;;;1999.90;999.90;;;7.70;99.90;;;;;;5050882;28;20104;-69
2024/01/01 08:09:15;;;;;;;1999.90;999.90;;;7.70;99.90;;;;;;5042408;28;20036;-69
2024/01/01 08:11:41;;;;;;;1999.90;999.90;;;7.70;99.90;;;;;;5034562;28;20099;-70
2024/01/01 08:14:06;;;;;;;1999.90;999.90;;;7.70;99.90;;;;;;5032179;28;20037;-70
2024/01/01 08:16:34;;;;;;;1999.90;999.90;;;7.80;99.90;;;;;;5029782;28;20105;-70
2024/01/01 08:19:00;;;;;;;1999.90;999.90;;;7.80;99.90;;;;;;5038344;28;20030;-69
2024/01/01 08:21:26;;;;;;;1999.90;999.90;;;7.80;99.90;;;;;;5026620;28;20452;-70
2024/01/01 08:23:52;;;;;;;1999.90;999.90;;;7.80;99.90;;;;;;5032434;28;20091;-69
2024/01/01 08:26:17;;;;;;;1999.90;999.90;;;7.90;99.90;;;;;;5024181;28;20428;-69
2024/01/01 08:28:43;;;;;;;1999.90;999.90;;;7.90;99.90;;;;;;5023977;28;20412;-69
2024/01/01 08:31:09;;;;;;;1999.90;999.90;;;7.90;99.90;;;;;;5024590;28;20714;-69
2024/01/01 08:33:34;;;;;;;1999.90;999.90;;;7.90;99.90;;;;;;5025742;28;20030;-69
2024/01/01 08:36:00;;;;;;;1999.90;999.90;;;7.90;99.90;;;;;;5024881;28;20021;-69
2024/01/01 08:38:26;;;;;;;1999.90;999.90;;;8.00;99.90;;;;;;5023454;28;20025;-70
2024/01/01 08:40:52;;;;;;;1999.90;999.90;;;8.00;99.90;;;;;;5023323;28;20413;-70
2024/01/01 08:43:17;;;;;;;1999.90;999.90;;;7.90;99.90;;;;;;5025044;28;20072;-69
2024/01/01 08:45:44;;;;;;;1999.90;999.90;;;7.90;99.90;;;;;;5027530;28;20034;-70
2024/01/01 08:48:09;;;;;;;1999.90;999.90;;;8.00;99.90;;;;;;5028391;28;20432;-69
2024/01/01 08:50:35;;;;;;;1999.90;999.90;;;7.90;99.90;;;;;;5025990;28;20342;-69
2024/01/01 08:53:01;;;;;;;1999.90;999.90;;;8.00;99.90;;;;;;5022445;28;20017;-69
2024/01/01 08:55:27;;;;;;;1999.90;999.90;;;8.00;99.90;;;;;;5017463;28;20032;-69
2024/01/01 08:57:53;;;;;;;1999.90;999.90;;;8.10;99.90;;;;;;5021672;28;20399;-69
2024/01/01 09:00:18;;;;;;;1999.90;999.90;;;8.10;99.90;;;;;;5021796;28;20105;-70
2024/01/01 09:02:44;;;;;;;1999.90;999.90;;;8.10;99.90;;;;;;5022490;28;20429;-69
2024/01/01 09:05:10;;;;;;;1999.90;999.90;;;8.10;99.90;;;;;;5024375;28;20025;-69
2024/01/01 09:07:35;;;;;;;1999.90;999.90;;;8.10;99.90;;;;;;5024399;28;20032;-69
2024/01/01 09:10:02;;;;;;;1999.90;999.90;;;8.20;99.90;;;;;;5025629;28;20047;-71
2024/01/01 09:12:29;;;;;;;1999.90;999.90;;;8.20;99.90;;;;;;5027645;28;20026;-68
2024/01/01 09:14:55;;;;;;;1999.90;999.90;;;8.20;99.90;;;;;;5035243;28;20034;-69
2024/01/01 09:17:21;;;;;;;1999.90;999.90;;;8.30;99.90;;;;;;5030004;28;20088;-69
2024/01/01 09:19:46;;;;;;;1999.90;999.90;;;8.40;99.90;;;;;;5026827;28;20041;-71
2024/01/01 09:22:12;;;;;;;1999.90;999.90;;;8.50;99.90;;;;;;5024313;28;20037;-68
2024/01/01 09:24:38;;;;;;;1999.90;999.90;;;8.40;99.90;;;;;;5023960;28;20030;-69
2024/01/01 09:27:04;;;;;;;1999.90;999.90;;;8.40;99.90;;;;;;5029686;28;20026;-69
2024/01/01 09:29:30;;;;;;;1999.90;999.90;;;8.40;99.90;;;;;;5022388;28;20041;-69
2024/01/01 09:31:55;;;;;;;1999.90;999.90;;;8.40;99.90;;;;;;5029593;28;20083;-69
2024/01/01 09:34:21;;;;;;;1999.90;999.90;;;8.40;99.90;;;;;;5030175;28;20026;-69
2024/01/01 09:36:47;;;;;;;1999.90;999.90;;;8.30;99.90;;;;;;5025263;28;20044;-69
2024/01/01 09:39:13;;;;;;;1999.90;999.90;;;8.30;99.90;;;;;;5037715;28;20159;-69
2024/01/01 09:41:39;;;;;;;1999.90;999.90;;;8.30;99.90;;;;;;5039854;28;20076;-69
2024/01/01 09:44:05;;;;;;;1999.90;999.90;;;8.40;99.90;;;;;;5029620;28;20025;-69
2024/01/01 09:46:33;;;;;;;1999.90;999.90;;;8.40;99.90;;;;;;5035447;28;20328;-71
2024/01/01 09:49:03;;;;;;;1999.90;999.90;;;8.40;99.90;;;;;;5030246;28;20022;-69
2024/01/01 09:51:29;;;;;;;1999.90;999.90;;;8.50;99.90;;;;;;5028278;28;20052;-69
2024/01/01 09:53:55;;;;;;;1999.90;999.90;;;8.40;99.90;;;;;;5029536;28;20384;-69
2024/01/01 09:56:21;;;;;;;1999.90;999.90;;;8.50;99.90;;;;;;5029388;28;20037;-69
2024/01/01 09:58:47;;;;;;;1999.90;999.90;;;8.50;99.90;;;;;;5032337;28;20026;-71
2024/01/01 10:01:19;;;;;;;1999.90;999.90;;;8.60;99.90;;;;;;5022402;28;20328;-69
2024/01/01 10:04:03;;;;;;;1999.90;999.90;;;8.70;99.90;;;;;;5026858;28;20309;-69
2024/01/01 10:06:29;;;;;;;1999.90;999.90;;;8.70;99.90;;;;;;5031001;28;20312;-69
2024/01/01 10:09:10;;;;;;;1999.90;999.90;;;8.70;99.90;;;;;;5032497;28;20103;-69
2024/01/01 10:11:41;;;;;;;1999.90;999.90;;;8.70;99.90;;;;;;5029063;28;20340;-69
2024/01/01 10:14:07;;;;;;;1999.90;999.90;;;8.70;99.90;;;;;;5023913;28;20080;-70
2024/01/01 10:16:34;;;;;;;1999.90;999.90;;;8.70;99.90;;;;;;5039954;28;20113;-70
2024/01/01 10:19:01;;;;;;;1999.90;999.90;;;8.80;99.90;;;;;;5027022;28;20655;-69
2024/01/01 10:21:41;;;;;;;1999.90;999.90;;;8.90;99.90;;;;;;5030349;28;20112;-69
2024/01/01 10:24:21;;;;;;;1999.90;999.90;;;9.10;99.90;;;;;;5026717;28;20416;-69
2024/01/01 10:26:47;;;;;;;1999.90;999.90;;;9.10;99.90;;;;;;5031983;28;20089;-69
2024/01/01 10:29:15;;;;;;;1999.90;999.90;;;9.10;99.90;;;;;;5032644;28;20306;-69
2024/01/01 10:31:45;;;;;;;1999.90;999.90;;;9.10;99.90;;;;;;5030880;28;20032;-69
2024/01/01 10:34:14;;;;;;;1999.90;999.90;;;9.20;99.90;;;;;;5027988;28;20040;-69
2024/01/01 10:36:43;;;;;;;1999.90;999.90;;;9.20;99.90;;;;;;5026668;28;20044;-69
2024/01/01 10:39:10;;;;;;;1999.90;999.90;;;9.20;99.90;;;;;;5024088;28;20033;-69
2024/01/01 10:41:37;;;;;;;1999.90;999.90;;;9.20;99.90;;;;;;5022191;28;20077;-68
2024/01/01 10:44:08;;;;;;;1999.90;999.90;;;9.30;99.90;;;;;;5022565;28;20059;-69
2024/01/01 10:46:47;;;;;;;1999.90;999.90;;;9.20;99.90;;;;;;5030129;28;20025;-69
2024/01/01 10:49:22;;;;;;;1999.90;999.90;;;9.30;99.90;;;;;;5023340;28;20030;-69
2024/01/01 10:52:20;;;;;;;1999.90;999.90;;;9.20;99.90;;;;;;5026862;28;20442;-69
2024/01/01 10:55:15;;;;;;;1999.90;999.90;;;9.30;99.90;;;;;;5023961;28;20076;-69
2024/01/01 10:58:04;;;;;;;1999.90;999.90;;;9.30;99.90;;;;;;5036568;28;20034;-69
2024/01/01 11:00:41;;;;;;;1999.90;999.90;;;9.30;99.90;;;;;;5019546;28;20159;-70
2024/01/01 11:03:13;;;;;;;1999.90;999.90;;;9.40;99.90;;;;;;5018155;28;20034;-70
2024/01/01 11:05:38;;;;;;;1999.90;999.90;;;9.50;99.90;;;;;;5023985;28;20022;-69
2024/01/01 11:08:04;;;;;;;1999.90;999.90;;;9.60;99.90;;;;;;5022175;28;20556;-69
2024/01/01 11:10:39;;;;;;;1999.90;999.90;;;9.60;99.90;;;;;;5025413;28;20025;-69
2024/01/01 11:13:08;;;;;;;1999.90;999.90;;;9.70;99.90;;;;;;5026339;28;20032;-69
2024/01/01 11:15:41;;;;;;;1999.90;999.90;;;9.60;99.90;;;;;;5018391;28;20364;-69
2024/01/01 11:18:18;;;;;;;1999.90;999.90;;;9.60;99.90;;;;;;5023504;28;20102;-69
2024/01/01 11:20:50;;;;;;;1999.90;999.90;;;9.80;99.90;;;;;;5023557;28;20564;-69
2024/01/01 11:23:44;;;;;;;1999.90;999.90;;;9.90;99.90;;;;;;5022528;28;20045;-69
2024/01/01 11:26:32;;;;;;;1999.90;999.90;;;10.00;99.90;;;;;;5030315;28;20113;-70
2024/01/01 11:29:26;;;;;;;1999.90;999.90;;;10.00;99.90;;;;;;5031458;28;20033;-68
2024/01/01 11:32:01;;;;;;;1999.90;999.90;;;10.10;99.90;;;;;;5028252;28;20535;-70
2024/01/01 11:34:27;;;;;;;1999.90;999.90;;;10.10;99.90;;;;;;5028091;28;20033;-69
2024/01/01 11:36:53;;;;;;;1999.90;999.90;;;9.90;99.90;;;;;;5024987;28;20095;-69
2024/01/01 11:39:24;;;;;;;1999.90;999.90;;;9.80;99.90;;;;;;5015862;28;20026;-69
2024/01/01 11:41:50;;;;;;;1999.90;999.90;;;9.70;99.90;;;;;;5022336;28;20065;-69
2024/01/01 11:44:23;;;;;;;1999.90;999.90;;;9.60;99.90;;;;;;5022374;28;20032;-69
2024/01/01 11:46:49;;;;;;;1999.90;999.90;;;9.60;99.90;;;;;;5027342;28;20030;-69
2024/01/01 11:49:15;;;;;;;1999.90;999.90;;;9.60;99.90;;;;;;5025556;28;20018;-70
2024/01/01 11:52:00;;;;;;;1999.90;999.90;;;9.50;99.90;;;;;;5024731;28;20041;-69
2024/01/01 11:54:26;;;;;;;1999.90;999.90;;;9.60;99.90;;;;;;5017778;28;20037;-70
2024/01/01 11:56:56;;;;;;;1999.90;999.90;;;9.70;99.90;;;;;;5025529;28;20087;-70
2024/01/01 11:59:24;;;;;;;1999.90;999.90;;;9.60;99.90;;;;;;5026252;28;20036;-69
2024/01/01 12:01:50;;;;;;;1999.90;999.90;;;9.60;99.90;;;;;;5034786;28;20029;-69
2024/01/01 12:04:16;;;;;;;1999.90;999.90;;;9.50;99.90;;;;;;5024564;28;20431;-69
2024/01/01 12:06:48;;;;;;;1999.90;999.90;;;9.50;99.90;;;;;;5030162;28;20033;-70
2024/01/01 12:09:14;;;;;;;1999.90;999.90;;;9.50;99.90;;;;;;5032796;28;20026;-71